createdAt,value
2018-09-30T00:02:42.603Z,2.60
2018-09-30T00:07:45.176Z,2.90
2018-09-30T00:12:47.742Z,2.27
2018-09-30T00:17:50.323Z,2.50
2018-09-30T00:22:52.890Z,2.60
2018-09-30T00:27:55.415Z,3.03
2018-09-30T00:32:57.933Z,3.20
2018-09-30T00:38:00.536Z,2.70
2018-09-30T00:43:03.128Z,2.47
2018-09-30T00:48:06.154Z,2.77
2018-09-30T00:53:08.681Z,2.53
2018-09-30T00:58:11.287Z,3.00
2018-09-30T01:03:13.879Z,2.60
2018-09-30T01:08:16.396Z,2.50
2018-09-30T01:13:18.976Z,2.40
2018-09-30T01:18:21.518Z,2.50
2018-09-30T01:23:24.052Z,2.33
2018-09-30T01:28:26.661Z,2.27
2018-09-30T01:33:29.272Z,2.20
2018-09-30T01:38:31.892Z,2.20
2018-09-30T01:43:34.432Z,2.40
2018-09-30T01:48:36.954Z,2.23
2018-09-30T01:53:39.487Z,2.97
2018-09-30T01:58:42.023Z,2.70
2018-09-30T02:03:44.575Z,2.20
2018-09-30T02:08:47.165Z,2.33
2018-09-30T02:13:49.701Z,2.27
2018-09-30T02:18:52.224Z,2.63
2018-09-30T02:23:54.759Z,2.13
2018-09-30T02:28:57.282Z,2.67
2018-09-30T02:33:59.843Z,1.73
2018-09-30T02:39:02.480Z,2.10
2018-09-30T02:44:05.013Z,2.07
2018-09-30T02:49:07.570Z,2.00
2018-09-30T02:54:10.098Z,1.83
2018-09-30T02:59:12.615Z,2.43
2018-09-30T03:04:15.134Z,1.80
2018-09-30T03:09:18.448Z,2.40
2018-09-30T03:14:20.998Z,2.27
2018-09-30T03:19:23.555Z,1.90
2018-09-30T03:24:26.814Z,2.07
2018-09-30T03:29:29.351Z,2.20
2018-09-30T03:34:31.924Z,2.17
2018-09-30T03:39:34.453Z,2.00
2018-09-30T03:44:37.039Z,1.93
2018-09-30T03:49:39.563Z,1.90
2018-09-30T03:54:42.098Z,2.10
2018-09-30T03:59:44.622Z,2.10
2018-09-30T04:04:47.196Z,2.03
2018-09-30T04:09:49.740Z,2.50
2018-09-30T04:14:53.279Z,2.43
2018-09-30T04:19:55.815Z,2.40
2018-09-30T04:24:58.351Z,1.87
2018-09-30T04:30:00.889Z,2.20
2018-09-30T04:35:03.438Z,2.00
2018-09-30T04:40:06.142Z,2.30
2018-09-30T04:45:08.735Z,2.33
2018-09-30T04:50:11.375Z,2.17
2018-09-30T04:55:13.823Z,2.30
2018-09-30T05:00:16.353Z,2.00
2018-09-30T05:05:18.907Z,2.73
2018-09-30T05:10:21.463Z,2.40
2018-09-30T05:15:24.009Z,3.20
2018-09-30T05:20:26.524Z,2.80
2018-09-30T05:25:29.054Z,3.10
2018-09-30T05:30:31.562Z,2.93
2018-09-30T05:35:34.092Z,3.27
2018-09-30T05:40:36.635Z,3.20
2018-09-30T05:45:39.167Z,3.07
2018-09-30T05:50:41.826Z,3.20
2018-09-30T05:55:44.374Z,5.37
2018-09-30T06:00:46.931Z,4.50
2018-09-30T06:05:49.479Z,3.70
2018-09-30T06:10:52.011Z,3.90
2018-09-30T06:15:54.619Z,3.70
2018-09-30T06:20:57.155Z,3.83
2018-09-30T06:25:59.712Z,3.60
2018-09-30T06:31:02.227Z,3.87
2018-09-30T06:36:04.779Z,3.70
2018-09-30T06:41:07.557Z,3.30
2018-09-30T06:46:10.077Z,3.53
2018-09-30T06:51:12.632Z,5.03
2018-09-30T06:56:15.179Z,4.30
2018-09-30T07:01:17.707Z,4.00
2018-09-30T07:06:20.258Z,4.30
2018-09-30T07:11:22.791Z,3.97
2018-09-30T07:16:25.313Z,3.53
2018-09-30T07:21:27.900Z,3.20
2018-09-30T07:26:30.466Z,2.67
2018-09-30T07:31:33.002Z,3.57
2018-09-30T07:36:35.536Z,3.73
2018-09-30T07:41:38.189Z,4.10
2018-09-30T07:46:40.844Z,3.60
2018-09-30T07:51:43.383Z,3.50
2018-09-30T07:56:46.065Z,3.90
2018-09-30T08:01:48.757Z,3.73
2018-09-30T08:06:51.423Z,3.03
2018-09-30T08:11:54.092Z,2.97
2018-09-30T08:16:56.695Z,3.50
2018-09-30T08:21:59.215Z,3.60
2018-09-30T08:27:01.759Z,3.60
2018-09-30T08:32:04.355Z,3.03
2018-09-30T08:37:06.906Z,2.93
2018-09-30T08:42:09.507Z,3.23
2018-09-30T08:47:12.155Z,3.37
2018-09-30T08:52:14.638Z,3.20
2018-09-30T08:57:17.210Z,3.43
2018-09-30T09:02:19.874Z,4.03
2018-09-30T09:07:22.612Z,3.60
2018-09-30T09:12:25.209Z,3.80
2018-09-30T09:17:27.812Z,3.90
2018-09-30T09:22:30.361Z,4.27
2018-09-30T09:27:32.883Z,3.80
2018-09-30T09:32:36.014Z,4.10
2018-09-30T09:37:38.810Z,4.37
2018-09-30T09:42:42.178Z,4.17
2018-09-30T09:47:44.765Z,5.10
2018-09-30T09:52:47.279Z,4.77
2018-09-30T09:57:49.811Z,5.00
2018-09-30T10:02:52.311Z,5.33
2018-09-30T10:07:54.856Z,5.20
2018-09-30T10:12:57.443Z,4.90
2018-09-30T10:17:59.992Z,4.73
2018-09-30T10:23:02.548Z,5.20
2018-09-30T10:28:05.112Z,4.40
2018-09-30T10:33:07.669Z,4.00
2018-09-30T10:38:10.236Z,4.73
2018-09-30T10:43:12.824Z,5.23
2018-09-30T10:48:15.392Z,5.47
2018-09-30T10:53:17.911Z,5.73
2018-09-30T10:58:20.461Z,5.43
2018-09-30T11:03:23.012Z,5.07
2018-09-30T11:08:25.575Z,5.67
2018-09-30T11:13:28.116Z,5.63
2018-09-30T11:18:30.745Z,4.53
2018-09-30T11:23:33.255Z,5.00
2018-09-30T11:28:35.793Z,4.03
2018-09-30T11:33:38.343Z,4.40
2018-09-30T11:38:40.867Z,4.87
2018-09-30T11:43:43.399Z,4.10
2018-09-30T11:48:45.953Z,4.97
2018-09-30T11:53:48.515Z,4.13
2018-09-30T11:58:51.053Z,5.20
2018-09-30T12:03:53.626Z,5.20
2018-09-30T12:08:56.427Z,4.40
2018-09-30T12:13:58.975Z,3.80
2018-09-30T12:19:01.591Z,4.17
2018-09-30T12:24:04.143Z,3.58
2018-09-30T12:29:06.807Z,3.98
2018-09-30T12:34:09.321Z,3.45
2018-09-30T12:39:11.910Z,4.03
2018-09-30T12:44:14.452Z,3.92
2018-09-30T12:49:16.979Z,3.47
2018-09-30T12:54:19.479Z,3.02
2018-09-30T12:59:22.013Z,2.83
2018-09-30T13:04:24.558Z,3.20
2018-09-30T13:09:27.076Z,3.47
2018-09-30T13:14:29.612Z,3.17
2018-09-30T13:19:32.131Z,2.95
2018-09-30T13:24:34.684Z,3.05
2018-09-30T13:29:37.207Z,2.77
2018-09-30T13:34:39.776Z,3.45
2018-09-30T13:39:42.303Z,3.50
2018-09-30T13:44:44.839Z,3.10
2018-09-30T13:49:47.385Z,3.08
2018-09-30T13:54:49.909Z,2.87
2018-09-30T13:59:52.443Z,2.60
2018-09-30T14:04:55.004Z,3.08
2018-09-30T14:09:57.563Z,2.80
2018-09-30T14:15:00.067Z,3.17
2018-09-30T14:20:02.621Z,2.80
2018-09-30T14:25:05.311Z,2.75
2018-09-30T14:30:07.899Z,3.10
2018-09-30T14:35:10.460Z,2.87
2018-09-30T14:40:13.003Z,2.77
2018-09-30T14:45:17.311Z,3.40
2018-09-30T14:50:20.516Z,3.00
2018-09-30T14:55:23.070Z,3.40
2018-09-30T15:00:25.629Z,3.17
2018-09-30T15:05:28.160Z,2.70
2018-09-30T15:10:31.436Z,2.90
2018-09-30T15:15:34.035Z,3.02
2018-09-30T15:20:36.705Z,3.27
2018-09-30T15:25:39.325Z,3.10
2018-09-30T15:30:41.963Z,2.77
2018-09-30T15:35:45.167Z,2.65
2018-09-30T15:40:47.734Z,3.60
2018-09-30T15:45:51.296Z,3.00
2018-09-30T15:50:53.843Z,3.55
2018-09-30T15:55:57.351Z,3.90
2018-09-30T16:00:59.943Z,3.30
2018-09-30T16:06:02.520Z,4.87
2018-09-30T16:11:05.406Z,3.47
2018-09-30T16:16:07.961Z,3.20
2018-09-30T16:21:10.557Z,3.37
2018-09-30T16:26:13.063Z,4.40
2018-09-30T16:31:15.704Z,4.70
2018-09-30T16:36:18.259Z,4.30
2018-09-30T16:41:21.164Z,4.07
2018-09-30T16:46:23.707Z,4.10
2018-09-30T16:51:26.253Z,3.97
2018-09-30T16:56:28.769Z,3.90
2018-09-30T17:01:31.400Z,4.20
2018-09-30T17:06:34.392Z,5.77
2018-09-30T17:11:37.004Z,5.50
2018-09-30T17:16:39.580Z,4.30
2018-09-30T17:21:42.173Z,4.70
2018-09-30T17:26:46.854Z,5.70
2018-09-30T17:31:49.472Z,9.07
2018-09-30T17:36:52.076Z,6.37
2018-09-30T17:41:54.624Z,8.07
2018-09-30T17:46:57.176Z,8.43
2018-09-30T17:51:59.818Z,7.10
2018-09-30T17:57:02.577Z,6.37
2018-09-30T18:02:05.232Z,6.23
2018-09-30T18:07:07.828Z,6.90
2018-09-30T18:12:10.413Z,10.33
2018-09-30T18:17:13.012Z,10.80
2018-09-30T18:22:16.511Z,8.77
2018-09-30T18:27:19.104Z,9.57
2018-09-30T18:32:21.669Z,8.75
2018-09-30T18:37:24.528Z,6.17
2018-09-30T18:42:27.358Z,6.10
2018-09-30T18:47:30.219Z,5.87
2018-09-30T18:52:34.711Z,5.90
2018-09-30T18:57:37.671Z,5.20
2018-09-30T19:02:40.603Z,5.43
2018-09-30T19:07:43.548Z,6.30
2018-09-30T19:12:46.655Z,5.90
2018-09-30T19:17:50.068Z,6.83
2018-09-30T19:22:53.052Z,8.77
2018-09-30T19:27:55.864Z,6.47
2018-09-30T19:32:59.199Z,7.13
2018-09-30T19:38:01.771Z,7.23
2018-09-30T19:43:04.337Z,7.67
2018-09-30T19:48:06.888Z,8.70
2018-09-30T19:53:09.464Z,7.33
2018-09-30T19:58:12.035Z,5.83
2018-09-30T20:03:14.644Z,5.50
2018-09-30T20:08:17.302Z,5.57
2018-09-30T20:13:19.854Z,5.70
2018-09-30T20:18:22.440Z,6.10
2018-09-30T20:23:25.005Z,6.67
2018-09-30T20:28:27.626Z,6.57
2018-09-30T20:33:30.170Z,6.40
2018-09-30T20:38:32.728Z,7.30
2018-09-30T20:43:35.267Z,7.40
2018-09-30T20:48:37.889Z,7.20
2018-09-30T20:53:40.403Z,7.23
2018-09-30T20:58:42.949Z,6.03
2018-09-30T21:03:45.530Z,6.47
2018-09-30T21:08:48.660Z,6.70
2018-09-30T21:13:51.232Z,6.50
2018-09-30T21:18:53.810Z,6.87
2018-09-30T21:23:56.384Z,6.57
2018-09-30T21:28:59.847Z,6.93
2018-09-30T21:34:02.384Z,6.80
2018-09-30T21:39:07.643Z,6.40
2018-09-30T21:44:10.185Z,6.73
2018-09-30T21:49:12.764Z,6.27
2018-09-30T21:54:15.312Z,6.67
2018-09-30T21:59:17.851Z,6.30
2018-09-30T22:04:20.389Z,6.37
2018-09-30T22:09:22.940Z,6.00
2018-09-30T22:14:25.476Z,5.97
2018-09-30T22:19:28.080Z,5.57
2018-09-30T22:24:30.912Z,6.23
2018-09-30T22:29:33.463Z,6.60
2018-09-30T22:34:36.020Z,7.03
2018-09-30T22:39:38.583Z,7.60
2018-09-30T22:44:41.135Z,6.40
2018-09-30T22:49:43.727Z,6.53
2018-09-30T22:54:46.280Z,6.07
2018-09-30T22:59:48.818Z,6.67
2018-09-30T23:04:52.119Z,6.57
2018-09-30T23:09:54.638Z,6.50
2018-09-30T23:14:57.151Z,5.70
2018-09-30T23:19:59.683Z,6.23
2018-09-30T23:25:02.233Z,6.30
2018-09-30T23:30:04.864Z,6.30
2018-09-30T23:35:07.422Z,6.40
2018-09-30T23:40:09.975Z,5.40
2018-09-30T23:45:12.520Z,6.23
2018-09-30T23:50:15.094Z,5.87
2018-09-30T23:55:17.626Z,5.80
